sensor_id;sensor_type;location;lat;lon;timestamp;P1;durP1;ratioP1;P2;durP2;ratioP2
11052;SDS011;55230;42.602;23.470;2022-08-01T00:01:33;3.70;;;3.40;;
11052;SDS011;55230;42.602;23.470;2022-08-01T00:04:01;4.10;;;3.77;;
11052;SDS011;55230;42.602;23.470;2022-08-01T00:06:28;5.13;;;4.63;;
11052;SDS011;55230;42.602;23.470;2022-08-01T00:08:55;5.27;;;4.77;;
11052;SDS011;55230;42.602;23.470;2022-08-01T00:11:24;5.80;;;5.20;;
11052;SDS011;55230;42.602;23.470;2022-08-01T00:13:51;5.30;;;4.90;;
11052;SDS011;55230;42.602;23.470;2022-08-01T00:16:18;5.23;;;4.83;;
11052;SDS011;55230;42.602;23.470;2022-08-01T00:18:47;5.57;;;5.17;;
11052;SDS011;55230;42.602;23.470;2022-08-01T00:21:14;5.80;;;5.30;;
11052;SDS011;55230;42.602;23.470;2022-08-01T00:23:41;8.53;;;7.83;;
11052;SDS011;55230;42.602;23.470;2022-08-01T00:26:08;7.80;;;7.10;;
11052;SDS011;55230;42.602;23.470;2022-08-01T00:28:36;7.90;;;7.23;;
11052;SDS011;55230;42.602;23.470;2022-08-01T00:31:03;7.83;;;7.13;;
11052;SDS011;55230;42.602;23.470;2022-08-01T00:33:30;9.33;;;8.53;;
11052;SDS011;55230;42.602;23.470;2022-08-01T00:35:57;10.37;;;9.43;;
11052;SDS011;55230;42.602;23.470;2022-08-01T00:38:24;10.87;;;9.80;;
11052;SDS011;55230;42.602;23.470;2022-08-01T00:40:51;8.27;;;7.57;;
11052;SDS011;55230;42.602;23.470;2022-08-01T00:43:17;7.77;;;7.07;;
11052;SDS011;55230;42.602;23.470;2022-08-01T00:45:46;7.90;;;7.30;;
11052;SDS011;55230;42.602;23.470;2022-08-01T00:48:13;8.10;;;7.40;;
11052;SDS011;55230;42.602;23.470;2022-08-01T00:50:39;8.13;;;7.43;;
11052;SDS011;55230;42.602;23.470;2022-08-01T00:53:06;7.93;;;7.23;;
11052;SDS011;55230;42.602;23.470;2022-08-01T00:55:33;7.23;;;6.63;;
11052;SDS011;55230;42.602;23.470;2022-08-01T00:58:00;7.37;;;6.43;;
11052;SDS011;55230;42.602;23.470;2022-08-01T01:00:27;7.50;;;6.80;;
11052;SDS011;55230;42.602;23.470;2022-08-01T01:02:55;6.90;;;6.30;;
11052;SDS011;55230;42.602;23.470;2022-08-01T01:05:22;7.07;;;6.47;;
11052;SDS011;55230;42.602;23.470;2022-08-01T01:07:50;8.60;;;6.90;;
11052;SDS011;55230;42.602;23.470;2022-08-01T01:10:24;7.87;;;7.17;;
11052;SDS011;55230;42.602;23.470;2022-08-01T01:13:02;10.63;;;7.30;;
11052;SDS011;55230;42.602;23.470;2022-08-01T01:15:33;7.57;;;6.50;;
11052;SDS011;55230;42.602;23.470;2022-08-01T01:18:09;7.60;;;6.90;;
11052;SDS011;55230;42.602;23.470;2022-08-01T01:20:41;7.90;;;7.13;;
11052;SDS011;55230;42.602;23.470;2022-08-01T01:23:16;8.27;;;6.87;;
11052;SDS011;55230;42.602;23.470;2022-08-01T01:26:01;8.37;;;6.97;;
11052;SDS011;55230;42.602;23.470;2022-08-01T01:31:22;7.03;;;6.43;;
11052;SDS011;55230;42.602;23.470;2022-08-01T01:33:51;5.93;;;5.20;;
11052;SDS011;55230;42.602;23.470;2022-08-01T01:36:20;5.40;;;4.90;;
11052;SDS011;55230;42.602;23.470;2022-08-01T01:38:48;4.50;;;4.10;;
11052;SDS011;55230;42.602;23.470;2022-08-01T01:41:17;4.60;;;4.10;;
11052;SDS011;55230;42.602;23.470;2022-08-01T01:43:45;6.10;;;4.00;;
11052;SDS011;55230;42.602;23.470;2022-08-01T01:46:15;4.80;;;3.60;;
11052;SDS011;55230;42.602;23.470;2022-08-01T01:48:47;4.63;;;3.60;;
11052;SDS011;55230;42.602;23.470;2022-08-01T01:51:15;3.60;;;3.30;;
11052;SDS011;55230;42.602;23.470;2022-08-01T01:53:43;4.70;;;3.60;;
11052;SDS011;55230;42.602;23.470;2022-08-01T01:56:11;6.80;;;3.57;;
11052;SDS011;55230;42.602;23.470;2022-08-01T01:58:42;3.70;;;3.17;;
11052;SDS011;55230;42.602;23.470;2022-08-01T02:01:10;4.33;;;3.13;;
11052;SDS011;55230;42.602;23.470;2022-08-01T02:03:40;3.20;;;2.90;;
11052;SDS011;55230;42.602;23.470;2022-08-01T02:06:08;2.73;;;2.53;;
11052;SDS011;55230;42.602;23.470;2022-08-01T02:08:38;2.90;;;2.53;;
11052;SDS011;55230;42.602;23.470;2022-08-01T02:11:07;4.20;;;2.53;;
11052;SDS011;55230;42.602;23.470;2022-08-01T02:13:58;2.40;;;2.20;;
11052;SDS011;55230;42.602;23.470;2022-08-01T02:16:28;2.70;;;2.50;;
11052;SDS011;55230;42.602;23.470;2022-08-01T02:18:59;2.70;;;2.50;;
11052;SDS011;55230;42.602;23.470;2022-08-01T02:21:27;4.67;;;2.70;;
11052;SDS011;55230;42.602;23.470;2022-08-01T02:23:58;3.00;;;2.30;;
11052;SDS011;55230;42.602;23.470;2022-08-01T02:26:29;3.20;;;2.70;;
11052;SDS011;55230;42.602;23.470;2022-08-01T02:28:57;2.77;;;2.30;;
11052;SDS011;55230;42.602;23.470;2022-08-01T02:31:28;2.57;;;2.33;;
11052;SDS011;55230;42.602;23.470;2022-08-01T02:34:00;4.13;;;2.53;;
11052;SDS011;55230;42.602;23.470;2022-08-01T02:36:31;2.37;;;2.20;;
11052;SDS011;55230;42.602;23.470;2022-08-01T02:39:00;2.80;;;2.27;;
11052;SDS011;55230;42.602;23.470;2022-08-01T02:41:29;3.03;;;2.30;;
11052;SDS011;55230;42.602;23.470;2022-08-01T02:43:59;4.87;;;2.37;;
11052;SDS011;55230;42.602;23.470;2022-08-01T02:46:31;2.97;;;2.10;;
11052;SDS011;55230;42.602;23.470;2022-08-01T02:49:04;2.57;;;2.23;;
11052;SDS011;55230;42.602;23.470;2022-08-01T02:51:34;2.80;;;2.30;;
11052;SDS011;55230;42.602;23.470;2022-08-01T02:54:02;2.80;;;2.60;;
11052;SDS011;55230;42.602;23.470;2022-08-01T02:56:31;2.90;;;2.70;;
11052;SDS011;55230;42.602;23.470;2022-08-01T02:59:02;2.93;;;2.57;;
11052;SDS011;55230;42.602;23.470;2022-08-01T03:01:32;3.43;;;2.57;;
11052;SDS011;55230;42.602;23.470;2022-08-01T03:04:00;3.63;;;3.00;;
11052;SDS011;55230;42.602;23.470;2022-08-01T03:06:29;3.40;;;3.10;;
11052;SDS011;55230;42.602;23.470;2022-08-01T03:08:57;3.17;;;2.97;;
11052;SDS011;55230;42.602;23.470;2022-08-01T03:11:26;3.37;;;3.17;;
11052;SDS011;55230;42.602;23.470;2022-08-01T03:13:54;3.50;;;3.20;;
11052;SDS011;55230;42.602;23.470;2022-08-01T03:16:22;7.53;;;5.43;;
11052;SDS011;55230;42.602;23.470;2022-08-01T03:18:51;7.03;;;6.13;;
11052;SDS011;55230;42.602;23.470;2022-08-01T03:21:21;8.20;;;6.57;;
11052;SDS011;55230;42.602;23.470;2022-08-01T03:23:51;9.23;;;7.67;;
11052;SDS011;55230;42.602;23.470;2022-08-01T03:26:23;8.83;;;7.13;;
11052;SDS011;55230;42.602;23.470;2022-08-01T03:28:52;8.77;;;7.73;;
11052;SDS011;55230;42.602;23.470;2022-08-01T03:31:23;10.73;;;9.30;;
11052;SDS011;55230;42.602;23.470;2022-08-01T03:33:51;9.73;;;7.80;;
11052;SDS011;55230;42.602;23.470;2022-08-01T03:36:18;7.70;;;6.90;;
11052;SDS011;55230;42.602;23.470;2022-08-01T03:38:52;8.47;;;7.00;;
11052;SDS011;55230;42.602;23.470;2022-08-01T03:41:23;9.27;;;6.13;;
11052;SDS011;55230;42.602;23.470;2022-08-01T03:43:55;8.10;;;4.90;;
11052;SDS011;55230;42.602;23.470;2022-08-01T03:46:26;3.83;;;3.40;;
11052;SDS011;55230;42.602;23.470;2022-08-01T03:49:00;2.77;;;2.57;;
11052;SDS011;55230;42.602;23.470;2022-08-01T03:51:29;3.87;;;2.67;;
11052;SDS011;55230;42.602;23.470;2022-08-01T03:54:00;5.43;;;2.53;;
11052;SDS011;55230;42.602;23.470;2022-08-01T03:56:27;2.30;;;2.10;;
11052;SDS011;55230;42.602;23.470;2022-08-01T03:58:57;2.60;;;2.20;;
11052;SDS011;55230;42.602;23.470;2022-08-01T04:01:25;3.07;;;2.10;;
11052;SDS011;55230;42.602;23.470;2022-08-01T04:03:54;1.90;;;1.80;;
11052;SDS011;55230;42.602;23.470;2022-08-01T04:06:21;2.50;;;2.23;;
11052;SDS011;55230;42.602;23.470;2022-08-01T04:08:48;3.73;;;2.50;;
11052;SDS011;55230;42.602;23.470;2022-08-01T04:14:29;4.20;;;2.40;;
11052;SDS011;55230;42.602;23.470;2022-08-01T04:16:56;4.63;;;3.27;;
11052;SDS011;55230;42.602;23.470;2022-08-01T04:19:23;3.73;;;3.07;;
11052;SDS011;55230;42.602;23.470;2022-08-01T04:21:51;3.60;;;2.93;;
11052;SDS011;55230;42.602;23.470;2022-08-01T04:24:18;3.33;;;3.03;;
11052;SDS011;55230;42.602;23.470;2022-08-01T04:26:48;5.60;;;3.30;;
11052;SDS011;55230;42.602;23.470;2022-08-01T04:29:17;5.33;;;3.70;;
11052;SDS011;55230;42.602;23.470;2022-08-01T04:31:48;4.50;;;4.10;;
11052;SDS011;55230;42.602;23.470;2022-08-01T04:34:17;3.83;;;3.53;;
11052;SDS011;55230;42.602;23.470;2022-08-01T04:36:47;5.87;;;4.20;;
11052;SDS011;55230;42.602;23.470;2022-08-01T04:39:15;5.80;;;4.33;;
11052;SDS011;55230;42.602;23.470;2022-08-01T04:41:44;6.07;;;4.87;;
11052;SDS011;55230;42.602;23.470;2022-08-01T04:44:12;6.30;;;5.70;;
11052;SDS011;55230;42.602;23.470;2022-08-01T04:46:39;5.70;;;5.10;;
11052;SDS011;55230;42.602;23.470;2022-08-01T04:49:08;7.33;;;5.17;;
11052;SDS011;55230;42.602;23.470;2022-08-01T04:51:37;5.67;;;5.17;;
11052;SDS011;55230;42.602;23.470;2022-08-01T04:54:17;6.53;;;5.90;;
11052;SDS011;55230;42.602;23.470;2022-08-01T04:56:44;6.40;;;5.70;;
11052;SDS011;55230;42.602;23.470;2022-08-01T04:59:11;6.33;;;5.47;;
11052;SDS011;55230;42.602;23.470;2022-08-01T05:01:55;7.63;;;5.40;;
11052;SDS011;55230;42.602;23.470;2022-08-01T05:04:23;5.80;;;4.73;;
11052;SDS011;55230;42.602;23.470;2022-08-01T05:06:50;5.53;;;4.53;;
11052;SDS011;55230;42.602;23.470;2022-08-01T05:09:16;4.97;;;4.53;;
11052;SDS011;55230;42.602;23.470;2022-08-01T05:11:43;6.57;;;4.33;;
11052;SDS011;55230;42.602;23.470;2022-08-01T05:14:10;4.93;;;4.53;;
11052;SDS011;55230;42.602;23.470;2022-08-01T05:16:37;4.80;;;4.40;;
11052;SDS011;55230;42.602;23.470;2022-08-01T05:19:03;5.03;;;4.53;;
11052;SDS011;55230;42.602;23.470;2022-08-01T05:21:32;6.23;;;4.77;;
11052;SDS011;55230;42.602;23.470;2022-08-01T05:23:58;9.60;;;4.30;;
11052;SDS011;55230;42.602;23.470;2022-08-01T05:26:25;4.63;;;3.93;;
11052;SDS011;55230;42.602;23.470;2022-08-01T05:28:52;6.33;;;4.20;;
11052;SDS011;55230;42.602;23.470;2022-08-01T05:31:19;6.13;;;4.63;;
11052;SDS011;55230;42.602;23.470;2022-08-01T05:33:45;7.33;;;4.87;;
11052;SDS011;55230;42.602;23.470;2022-08-01T05:36:12;5.00;;;4.60;;
11052;SDS011;55230;42.602;23.470;2022-08-01T05:38:40;4.50;;;4.10;;
11052;SDS011;55230;42.602;23.470;2022-08-01T05:41:07;5.47;;;4.23;;
11052;SDS011;55230;42.602;23.470;2022-08-01T05:43:34;4.70;;;4.30;;
11052;SDS011;55230;42.602;23.470;2022-08-01T05:46:01;4.50;;;4.10;;
11052;SDS011;55230;42.602;23.470;2022-08-01T05:48:27;4.57;;;4.13;;
11052;SDS011;55230;42.602;23.470;2022-08-01T05:50:55;4.30;;;3.90;;
11052;SDS011;55230;42.602;23.470;2022-08-01T05:53:22;4.80;;;4.20;;
11052;SDS011;55230;42.602;23.470;2022-08-01T05:55:50;5.33;;;3.87;;
11052;SDS011;55230;42.602;23.470;2022-08-01T05:58:17;7.00;;;3.93;;
11052;SDS011;55230;42.602;23.470;2022-08-01T06:00:44;7.90;;;3.77;;
11052;SDS011;55230;42.602;23.470;2022-08-01T06:03:11;4.67;;;4.27;;
11052;SDS011;55230;42.602;23.470;2022-08-01T06:05:39;5.10;;;4.37;;
11052;SDS011;55230;42.602;23.470;2022-08-01T06:08:06;5.50;;;4.30;;
11052;SDS011;55230;42.602;23.470;2022-08-01T06:10:32;4.60;;;4.20;;
11052;SDS011;55230;42.602;23.470;2022-08-01T06:13:01;5.30;;;4.53;;
11052;SDS011;55230;42.602;23.470;2022-08-01T06:15:28;5.03;;;4.53;;
11052;SDS011;55230;42.602;23.470;2022-08-01T06:17:55;5.17;;;4.70;;
11052;SDS011;55230;42.602;23.470;2022-08-01T06:20:22;9.03;;;4.53;;
11052;SDS011;55230;42.602;23.470;2022-08-01T06:22:49;6.93;;;5.03;;
11052;SDS011;55230;42.602;23.470;2022-08-01T06:25:16;6.80;;;4.30;;
11052;SDS011;55230;42.602;23.470;2022-08-01T06:27:43;7.50;;;4.67;;
11052;SDS011;55230;42.602;23.470;2022-08-01T06:30:11;6.07;;;4.60;;
11052;SDS011;55230;42.602;23.470;2022-08-01T06:32:38;5.23;;;4.20;;
11052;SDS011;55230;42.602;23.470;2022-08-01T06:35:05;4.97;;;4.00;;
11052;SDS011;55230;42.602;23.470;2022-08-01T06:37:33;5.53;;;4.00;;
11052;SDS011;55230;42.602;23.470;2022-08-01T06:40:00;5.67;;;3.90;;
11052;SDS011;55230;42.602;23.470;2022-08-01T06:42:27;5.13;;;3.83;;
11052;SDS011;55230;42.602;23.470;2022-08-01T06:44:56;7.20;;;4.67;;
11052;SDS011;55230;42.602;23.470;2022-08-01T06:47:24;7.80;;;4.17;;
11052;SDS011;55230;42.602;23.470;2022-08-01T06:49:51;4.90;;;3.83;;
11052;SDS011;55230;42.602;23.470;2022-08-01T06:52:18;4.13;;;3.00;;
11052;SDS011;55230;42.602;23.470;2022-08-01T06:54:44;4.50;;;2.77;;
11052;SDS011;55230;42.602;23.470;2022-08-01T06:57:11;2.73;;;2.53;;
11052;SDS011;55230;42.602;23.470;2022-08-01T06:59:38;4.33;;;2.73;;
11052;SDS011;55230;42.602;23.470;2022-08-01T07:02:05;4.40;;;2.73;;
11052;SDS011;55230;42.602;23.470;2022-08-01T07:04:34;2.80;;;2.60;;
11052;SDS011;55230;42.602;23.470;2022-08-01T07:07:01;2.73;;;2.37;;
11052;SDS011;55230;42.602;23.470;2022-08-01T07:09:28;3.50;;;3.20;;
11052;SDS011;55230;42.602;23.470;2022-08-01T07:11:54;4.30;;;2.53;;
11052;SDS011;55230;42.602;23.470;2022-08-01T07:14:22;2.87;;;2.67;;
11052;SDS011;55230;42.602;23.470;2022-08-01T07:16:49;4.40;;;3.03;;
11052;SDS011;55230;42.602;23.470;2022-08-01T07:19:16;4.10;;;2.90;;
11052;SDS011;55230;42.602;23.470;2022-08-01T07:21:45;3.20;;;2.87;;
11052;SDS011;55230;42.602;23.470;2022-08-01T07:24:12;6.23;;;2.90;;
11052;SDS011;55230;42.602;23.470;2022-08-01T07:26:41;3.00;;;2.70;;
11052;SDS011;55230;42.602;23.470;2022-08-01T07:29:08;3.40;;;3.20;;
11052;SDS011;55230;42.602;23.470;2022-08-01T07:31:35;3.17;;;2.87;;
11052;SDS011;55230;42.602;23.470;2022-08-01T07:34:02;3.77;;;3.27;;
11052;SDS011;55230;42.602;23.470;2022-08-01T07:36:29;3.43;;;3.13;;
11052;SDS011;55230;42.602;23.470;2022-08-01T07:38:57;3.43;;;3.10;;
11052;SDS011;55230;42.602;23.470;2022-08-01T07:41:24;4.87;;;3.30;;
11052;SDS011;55230;42.602;23.470;2022-08-01T07:43:50;3.40;;;3.10;;
11052;SDS011;55230;42.602;23.470;2022-08-01T07:46:17;4.73;;;3.37;;
11052;SDS011;55230;42.602;23.470;2022-08-01T07:48:44;3.53;;;3.23;;
11052;SDS011;55230;42.602;23.470;2022-08-01T07:51:11;3.70;;;3.20;;
11052;SDS011;55230;42.602;23.470;2022-08-01T07:53:38;3.73;;;2.80;;
11052;SDS011;55230;42.602;23.470;2022-08-01T07:56:06;4.33;;;3.07;;
11052;SDS011;55230;42.602;23.470;2022-08-01T07:58:33;3.13;;;2.83;;
11052;SDS011;55230;42.602;23.470;2022-08-01T08:01:00;3.90;;;3.07;;
11052;SDS011;55230;42.602;23.470;2022-08-01T08:03:26;4.47;;;2.80;;
11052;SDS011;55230;42.602;23.470;2022-08-01T08:05:53;3.13;;;2.77;;
11052;SDS011;55230;42.602;23.470;2022-08-01T08:08:20;3.10;;;2.80;;
11052;SDS011;55230;42.602;23.470;2022-08-01T08:10:47;5.83;;;3.60;;
11052;SDS011;55230;42.602;23.470;2022-08-01T08:13:15;3.37;;;2.87;;
11052;SDS011;55230;42.602;23.470;2022-08-01T08:15:42;3.20;;;2.87;;
11052;SDS011;55230;42.602;23.470;2022-08-01T08:18:09;2.97;;;2.73;;
11052;SDS011;55230;42.602;23.470;2022-08-01T08:20:35;4.10;;;3.03;;
11052;SDS011;55230;42.602;23.470;2022-08-01T08:23:02;4.57;;;2.80;;
11052;SDS011;55230;42.602;23.470;2022-08-01T08:25:49;3.07;;;2.77;;
11052;SDS011;55230;42.602;23.470;2022-08-01T08:28:17;4.00;;;3.00;;
11052;SDS011;55230;42.602;23.470;2022-08-01T08:30:44;3.00;;;2.80;;
11052;SDS011;55230;42.602;23.470;2022-08-01T08:33:11;3.20;;;2.90;;
11052;SDS011;55230;42.602;23.470;2022-08-01T08:35:38;3.30;;;3.00;;
11052;SDS011;55230;42.602;23.470;2022-08-01T08:38:05;3.20;;;2.90;;
11052;SDS011;55230;42.602;23.470;2022-08-01T08:40:32;4.53;;;2.90;;
11052;SDS011;55230;42.602;23.470;2022-08-01T08:43:01;3.27;;;2.90;;
11052;SDS011;55230;42.602;23.470;2022-08-01T08:45:32;2.83;;;2.50;;
11052;SDS011;55230;42.602;23.470;2022-08-01T08:47:59;2.80;;;2.60;;
11052;SDS011;55230;42.602;23.470;2022-08-01T08:50:26;5.53;;;2.80;;
11052;SDS011;55230;42.602;23.470;2022-08-01T08:52:54;3.55;;;2.90;;
11052;SDS011;55230;42.602;23.470;2022-08-01T08:55:22;2.97;;;2.65;;
11052;SDS011;55230;42.602;23.470;2022-08-01T08:57:49;3.67;;;3.15;;
11052;SDS011;55230;42.602;23.470;2022-08-01T09:00:18;4.72;;;2.80;;
11052;SDS011;55230;42.602;23.470;2022-08-01T09:02:46;3.45;;;2.97;;
11052;SDS011;55230;42.602;23.470;2022-08-01T09:05:15;3.67;;;3.13;;
11052;SDS011;55230;42.602;23.470;2022-08-01T09:07:42;3.20;;;2.90;;
11052;SDS011;55230;42.602;23.470;2022-08-01T09:10:09;3.35;;;2.90;;
11052;SDS011;55230;42.602;23.470;2022-08-01T09:12:36;4.35;;;2.83;;
11052;SDS011;55230;42.602;23.470;2022-08-01T09:15:03;3.30;;;3.00;;
11052;SDS011;55230;42.602;23.470;2022-08-01T09:17:38;3.70;;;2.60;;
11052;SDS011;55230;42.602;23.470;2022-08-01T09:20:08;4.68;;;2.70;;
11052;SDS011;55230;42.602;23.470;2022-08-01T09:22:49;2.88;;;2.60;;
11052;SDS011;55230;42.602;23.470;2022-08-01T09:25:15;4.28;;;2.90;;
11052;SDS011;55230;42.602;23.470;2022-08-01T09:27:42;4.63;;;2.97;;
11052;SDS011;55230;42.602;23.470;2022-08-01T09:30:10;3.73;;;2.37;;
11052;SDS011;55230;42.602;23.470;2022-08-01T09:32:55;2.78;;;2.58;;
11052;SDS011;55230;42.602;23.470;2022-08-01T09:35:27;3.42;;;2.88;;
11052;SDS011;55230;42.602;23.470;2022-08-01T09:38:15;3.30;;;2.40;;
11052;SDS011;55230;42.602;23.470;2022-08-01T09:40:44;2.47;;;2.28;;
11052;SDS011;55230;42.602;23.470;2022-08-01T09:43:11;2.72;;;2.53;;
11052;SDS011;55230;42.602;23.470;2022-08-01T09:45:38;3.03;;;2.83;;
11052;SDS011;55230;42.602;23.470;2022-08-01T09:48:06;3.00;;;2.80;;
11052;SDS011;55230;42.602;23.470;2022-08-01T09:50:39;5.45;;;2.47;;
11052;SDS011;55230;42.602;23.470;2022-08-01T09:53:07;2.37;;;2.17;;
11052;SDS011;55230;42.602;23.470;2022-08-01T09:55:34;2.20;;;2.00;;
11052;SDS011;55230;42.602;23.470;2022-08-01T09:58:01;2.80;;;2.60;;
11052;SDS011;55230;42.602;23.470;2022-08-01T10:00:29;2.47;;;2.28;;
11052;SDS011;55230;42.602;23.470;2022-08-01T10:02:57;2.80;;;2.53;;
11052;SDS011;55230;42.602;23.470;2022-08-01T10:05:30;2.75;;;2.55;;
11052;SDS011;55230;42.602;23.470;2022-08-01T10:08:00;2.63;;;2.25;;
11052;SDS011;55230;42.602;23.470;2022-08-01T10:10:29;3.35;;;2.10;;
11052;SDS011;55230;42.602;23.470;2022-08-01T10:12:57;3.22;;;2.53;;
11052;SDS011;55230;42.602;23.470;2022-08-01T10:15:25;3.10;;;2.80;;
11052;SDS011;55230;42.602;23.470;2022-08-01T10:17:54;2.90;;;2.70;;
11052;SDS011;55230;42.602;23.470;2022-08-01T10:20:23;4.22;;;2.88;;
11052;SDS011;55230;42.602;23.470;2022-08-01T10:22:52;7.70;;;6.72;;
11052;SDS011;55230;42.602;23.470;2022-08-01T10:25:21;3.05;;;2.58;;
11052;SDS011;55230;42.602;23.470;2022-08-01T10:27:49;4.28;;;2.63;;
11052;SDS011;55230;42.602;23.470;2022-08-01T10:30:20;2.92;;;2.72;;
11052;SDS011;55230;42.602;23.470;2022-08-01T10:32:47;3.13;;;2.40;;
11052;SDS011;55230;42.602;23.470;2022-08-01T10:35:14;3.28;;;2.88;;
11052;SDS011;55230;42.602;23.470;2022-08-01T10:37:43;3.72;;;2.60;;
11052;SDS011;55230;42.602;23.470;2022-08-01T10:40:11;2.97;;;2.78;;
11052;SDS011;55230;42.602;23.470;2022-08-01T10:42:40;3.65;;;2.90;;
11052;SDS011;55230;42.602;23.470;2022-08-01T10:45:08;2.83;;;2.63;;
11052;SDS011;55230;42.602;23.470;2022-08-01T10:47:38;3.72;;;3.03;;
11052;SDS011;55230;42.602;23.470;2022-08-01T10:50:11;2.75;;;2.60;;
11052;SDS011;55230;42.602;23.470;2022-08-01T10:55:48;3.83;;;2.83;;
11052;SDS011;55230;42.602;23.470;2022-08-01T10:58:23;2.78;;;2.58;;
11052;SDS011;55230;42.602;23.470;2022-08-01T11:03:40;3.08;;;2.88;;
11052;SDS011;55230;42.602;23.470;2022-08-01T11:06:13;5.40;;;2.80;;
11052;SDS011;55230;42.602;23.470;2022-08-01T11:08:42;2.95;;;2.70;;
11052;SDS011;55230;42.602;23.470;2022-08-01T11:11:17;3.65;;;2.65;;
11052;SDS011;55230;42.602;23.470;2022-08-01T11:14:02;2.47;;;2.28;;
11052;SDS011;55230;42.602;23.470;2022-08-01T11:16:33;3.08;;;2.45;;
11052;SDS011;55230;42.602;23.470;2022-08-01T11:19:01;2.85;;;2.40;;
11052;SDS011;55230;42.602;23.470;2022-08-01T11:27:23;2.90;;;2.70;;
11052;SDS011;55230;42.602;23.470;2022-08-01T11:32:52;2.80;;;2.50;;
11052;SDS011;55230;42.602;23.470;2022-08-01T11:35:20;4.75;;;2.72;;
11052;SDS011;55230;42.602;23.470;2022-08-01T11:37:48;3.05;;;2.75;;
11052;SDS011;55230;42.602;23.470;2022-08-01T11:40:17;2.75;;;2.42;;
11052;SDS011;55230;42.602;23.470;2022-08-01T11:42:46;2.70;;;2.50;;
11052;SDS011;55230;42.602;23.470;2022-08-01T11:45:13;3.03;;;2.58;;
11052;SDS011;55230;42.602;23.470;2022-08-01T11:47:44;2.50;;;2.40;;
11052;SDS011;55230;42.602;23.470;2022-08-01T11:50:34;2.80;;;2.60;;
11052;SDS011;55230;42.602;23.470;2022-08-01T11:53:02;2.80;;;2.60;;
11052;SDS011;55230;42.602;23.470;2022-08-01T11:55:31;5.50;;;2.80;;
11052;SDS011;55230;42.602;23.470;2022-08-01T11:58:00;3.15;;;2.92;;
11052;SDS011;55230;42.602;23.470;2022-08-01T12:00:28;4.78;;;2.80;;
11052;SDS011;55230;42.602;23.470;2022-08-01T12:02:58;3.35;;;3.00;;
11052;SDS011;55230;42.602;23.470;2022-08-01T12:05:26;3.20;;;2.90;;
11052;SDS011;55230;42.602;23.470;2022-08-01T12:07:54;3.80;;;3.08;;
11052;SDS011;55230;42.602;23.470;2022-08-01T12:10:22;4.57;;;3.03;;
11052;SDS011;55230;42.602;23.470;2022-08-01T12:12:50;3.10;;;2.80;;
11052;SDS011;55230;42.602;23.470;2022-08-01T12:15:19;5.88;;;2.70;;
11052;SDS011;55230;42.602;23.470;2022-08-01T12:17:48;2.97;;;2.78;;
11052;SDS011;55230;42.602;23.470;2022-08-01T12:20:19;3.97;;;2.58;;
11052;SDS011;55230;42.602;23.470;2022-08-01T12:22:47;2.88;;;2.67;;
11052;SDS011;55230;42.602;23.470;2022-08-01T12:25:18;3.35;;;2.67;;
11052;SDS011;55230;42.602;23.470;2022-08-01T12:27:46;3.38;;;3.08;;
11052;SDS011;55230;42.602;23.470;2022-08-01T12:30:15;3.15;;;2.85;;
11052;SDS011;55230;42.602;23.470;2022-08-01T12:32:44;3.15;;;2.95;;
11052;SDS011;55230;42.602;23.470;2022-08-01T12:35:12;3.55;;;3.35;;
11052;SDS011;55230;42.602;23.470;2022-08-01T12:37:42;3.60;;;3.30;;
11052;SDS011;55230;42.602;23.470;2022-08-01T12:40:13;3.60;;;3.30;;
11052;SDS011;55230;42.602;23.470;2022-08-01T12:42:42;5.60;;;3.33;;
11052;SDS011;55230;42.602;23.470;2022-08-01T12:45:10;4.00;;;2.90;;
11052;SDS011;55230;42.602;23.470;2022-08-01T12:47:40;4.95;;;3.35;;
11052;SDS011;55230;42.602;23.470;2022-08-01T12:50:10;4.13;;;3.10;;
11052;SDS011;55230;42.602;23.470;2022-08-01T12:52:39;3.15;;;2.95;;
11052;SDS011;55230;42.602;23.470;2022-08-01T12:55:11;3.60;;;3.38;;
11052;SDS011;55230;42.602;23.470;2022-08-01T12:57:40;3.70;;;3.40;;
11052;SDS011;55230;42.602;23.470;2022-08-01T13:00:13;3.53;;;3.33;;
11052;SDS011;55230;42.602;23.470;2022-08-01T13:02:43;3.22;;;3.03;;
11052;SDS011;55230;42.602;23.470;2022-08-01T13:05:11;3.65;;;3.35;;
11052;SDS011;55230;42.602;23.470;2022-08-01T13:07:40;3.35;;;3.15;;
11052;SDS011;55230;42.602;23.470;2022-08-01T13:10:25;3.80;;;3.55;;
11052;SDS011;55230;42.602;23.470;2022-08-01T13:12:54;3.70;;;3.17;;
11052;SDS011;55230;42.602;23.470;2022-08-01T13:15:23;3.85;;;3.55;;
11052;SDS011;55230;42.602;23.470;2022-08-01T13:17:52;3.75;;;3.40;;
11052;SDS011;55230;42.602;23.470;2022-08-01T13:20:28;4.20;;;3.55;;
11052;SDS011;55230;42.602;23.470;2022-08-01T13:23:13;3.65;;;3.35;;
11052;SDS011;55230;42.602;23.470;2022-08-01T13:25:50;3.67;;;3.38;;
11052;SDS011;55230;42.602;23.470;2022-08-01T13:28:19;3.80;;;3.50;;
11052;SDS011;55230;42.602;23.470;2022-08-01T13:30:54;3.20;;;3.00;;
11052;SDS011;55230;42.602;23.470;2022-08-01T13:33:23;3.80;;;3.50;;
11052;SDS011;55230;42.602;23.470;2022-08-01T13:35:50;4.45;;;3.60;;
11052;SDS011;55230;42.602;23.470;2022-08-01T13:38:18;4.03;;;3.72;;
11052;SDS011;55230;42.602;23.470;2022-08-01T13:40:45;3.42;;;3.17;;
11052;SDS011;55230;42.602;23.470;2022-08-01T13:43:13;4.15;;;3.60;;
11052;SDS011;55230;42.602;23.470;2022-08-01T13:45:40;3.42;;;3.20;;
11052;SDS011;55230;42.602;23.470;2022-08-01T13:48:07;4.38;;;3.30;;
11052;SDS011;55230;42.602;23.470;2022-08-01T13:50:33;3.50;;;3.30;;
11052;SDS011;55230;42.602;23.470;2022-08-01T13:53:00;3.50;;;3.20;;
11052;SDS011;55230;42.602;23.470;2022-08-01T13:55:27;6.45;;;3.20;;
11052;SDS011;55230;42.602;23.470;2022-08-01T13:57:54;3.53;;;3.25;;
11052;SDS011;55230;42.602;23.470;2022-08-01T14:00:22;4.18;;;3.28;;
11052;SDS011;55230;42.602;23.470;2022-08-01T14:02:49;4.53;;;3.25;;
11052;SDS011;55230;42.602;23.470;2022-08-01T14:05:16;3.72;;;3.30;;
11052;SDS011;55230;42.602;23.470;2022-08-01T14:07:43;3.08;;;2.80;;
11052;SDS011;55230;42.602;23.470;2022-08-01T14:10:10;4.97;;;3.10;;
11052;SDS011;55230;42.602;23.470;2022-08-01T14:12:37;3.15;;;2.92;;
11052;SDS011;55230;42.602;23.470;2022-08-01T14:15:04;3.60;;;3.40;;
11052;SDS011;55230;42.602;23.470;2022-08-01T14:17:33;3.60;;;3.30;;
11052;SDS011;55230;42.602;23.470;2022-08-01T14:20:00;3.40;;;3.15;;
11052;SDS011;55230;42.602;23.470;2022-08-01T14:22:29;3.30;;;2.97;;
11052;SDS011;55230;42.602;23.470;2022-08-01T14:24:56;3.65;;;3.17;;
11052;SDS011;55230;42.602;23.470;2022-08-01T14:27:24;6.18;;;3.45;;
11052;SDS011;55230;42.602;23.470;2022-08-01T14:29:50;5.95;;;3.40;;
11052;SDS011;55230;42.602;23.470;2022-08-01T14:32:17;3.17;;;2.97;;
11052;SDS011;55230;42.602;23.470;2022-08-01T14:34:45;3.50;;;3.28;;
11052;SDS011;55230;42.602;23.470;2022-08-01T14:37:12;3.50;;;3.20;;
11052;SDS011;55230;42.602;23.470;2022-08-01T14:39:39;3.60;;;2.92;;
11052;SDS011;55230;42.602;23.470;2022-08-01T14:42:06;3.30;;;3.10;;
11052;SDS011;55230;42.602;23.470;2022-08-01T14:44:33;4.18;;;3.10;;
11052;SDS011;55230;42.602;23.470;2022-08-01T14:46:59;3.60;;;3.13;;
11052;SDS011;55230;42.602;23.470;2022-08-01T14:49:26;4.15;;;3.20;;
11052;SDS011;55230;42.602;23.470;2022-08-01T14:51:55;3.17;;;2.97;;
11052;SDS011;55230;42.602;23.470;2022-08-01T14:54:21;3.60;;;3.30;;
11052;SDS011;55230;42.602;23.470;2022-08-01T14:56:48;3.50;;;3.22;;
11052;SDS011;55230;42.602;23.470;2022-08-01T14:59:17;5.13;;;3.45;;
11052;SDS011;55230;42.602;23.470;2022-08-01T15:01:45;4.07;;;3.60;;
11052;SDS011;55230;42.602;23.470;2022-08-01T15:04:11;3.78;;;3.22;;